BAW830D EGLL-EIDW
Flight info
| Callsign | BAW830D |
|---|---|
| Flight time | 0h 51m |
| Altitude | 36000 |
| Route | DCT ULTIB T420 TNT UL28 LELDO M145 BAGSO DCT |
| Aircraft | A320/M-SDE3FGIKRWXY/S |
Departure
| Time | 2026-05-05 11:57 |
|---|---|
| Airport | London Heathrow Airport (EGLL) |
Arrival
| Time | 2026-05-05 12:48 |
|---|---|
| Airport | Dublin Airport (EIDW) |
| Time | Latitude | Longitude | Altitude | Speed | Heading |
|---|---|---|---|---|---|
| 2026-05-05 11:21 | 51.46927 | -0.48576 | 89 ft | 0 kts | 360° |
| 2026-05-05 11:49 | 51.46926 | -0.48576 | 87 ft | 1 kts | 360° |
| 2026-05-05 11:50 | 51.46902 | -0.48579 | 88 ft | 4 kts | 17° |
| 2026-05-05 11:50 | 51.46881 | -0.48598 | 89 ft | 4 kts | 63° |
| 2026-05-05 11:50 | 51.46877 | -0.48621 | 88 ft | 1 kts | 89° |
| 2026-05-05 11:50 | 51.46877 | -0.48625 | 88 ft | 0 kts | 89° |
| 2026-05-05 11:51 | 51.46877 | -0.48624 | 88 ft | 0 kts | 89° |
| 2026-05-05 11:53 | 51.46877 | -0.48601 | 89 ft | 3 kts | 90° |
| 2026-05-05 11:54 | 51.46877 | -0.48584 | 88 ft | 5 kts | 90° |
| 2026-05-05 11:54 | 51.46869 | -0.48501 | 88 ft | 9 kts | 121° |
| 2026-05-05 11:54 | 51.46805 | -0.48476 | 87 ft | 11 kts | 179° |
| 2026-05-05 11:54 | 51.46721 | -0.48474 | 87 ft | 13 kts | 179° |
| 2026-05-05 11:55 | 51.46626 | -0.48472 | 87 ft | 5 kts | 179° |
| 2026-05-05 11:55 | 51.46602 | -0.48471 | 88 ft | 0 kts | 179° |
| 2026-05-05 11:55 | 51.46595 | -0.48471 | 88 ft | 3 kts | 179° |
| 2026-05-05 11:55 | 51.46544 | -0.48471 | 89 ft | 11 kts | 180° |
| 2026-05-05 11:56 | 51.46478 | -0.48409 | 89 ft | 10 kts | 107° |
| 2026-05-05 11:56 | 51.46478 | -0.48342 | 91 ft | 0 kts | 88° |
| 2026-05-05 11:56 | 51.46479 | -0.48265 | 89 ft | 31 kts | 89° |
| 2026-05-05 11:57 | 51.46482 | -0.47494 | 86 ft | 105 kts | 89° |
| 2026-05-05 11:57 | 51.46487 | -0.46038 | 91 ft | 155 kts | 90° |
| 2026-05-05 11:57 | 51.46483 | -0.44183 | 398 ft | 173 kts | 86° |
| 2026-05-05 11:57 | 51.46503 | -0.42208 | 973 ft | 182 kts | 86° |
| 2026-05-05 11:58 | 51.46793 | -0.40266 | 1672 ft | 186 kts | 53° |
| 2026-05-05 11:58 | 51.47712 | -0.38665 | 2054 ft | 205 kts | 45° |
| 2026-05-05 11:58 | 51.48729 | -0.36878 | 2446 ft | 229 kts | 47° |
| 2026-05-05 11:58 | 51.49816 | -0.34871 | 3122 ft | 245 kts | 48° |
| 2026-05-05 11:59 | 51.50874 | -0.32867 | 4045 ft | 250 kts | 50° |
| 2026-05-05 11:59 | 51.51971 | -0.30703 | 5023 ft | 255 kts | 56° |
| 2026-05-05 11:59 | 51.52724 | -0.28139 | 5730 ft | 263 kts | 70° |
| 2026-05-05 11:59 | 51.53431 | -0.25436 | 5948 ft | 265 kts | 57° |
| 2026-05-05 12:00 | 51.54719 | -0.23339 | 6004 ft | 266 kts | 32° |
| 2026-05-05 12:00 | 51.56441 | -0.22389 | 6009 ft | 267 kts | 5° |
| 2026-05-05 12:00 | 51.58276 | -0.22771 | 6032 ft | 271 kts | 345° |
| 2026-05-05 12:00 | 51.60118 | -0.23508 | 6852 ft | 273 kts | 349° |
| 2026-05-05 12:01 | 51.61368 | -0.23983 | 7488 ft | 275 kts | 343° |
| 2026-05-05 12:01 | 51.63108 | -0.25199 | 8357 ft | 279 kts | 332° |
| 2026-05-05 12:01 | 51.64809 | -0.26738 | 9262 ft | 282 kts | 330° |
| 2026-05-05 12:01 | 51.66511 | -0.28347 | 10109 ft | 286 kts | 329° |
| 2026-05-05 12:02 | 51.68290 | -0.30055 | 10438 ft | 309 kts | 329° |
| 2026-05-05 12:02 | 51.70204 | -0.31905 | 10686 ft | 331 kts | 329° |
| 2026-05-05 12:02 | 51.72210 | -0.33846 | 11251 ft | 340 kts | 329° |
| 2026-05-05 12:02 | 51.74248 | -0.35822 | 11937 ft | 344 kts | 329° |
| 2026-05-05 12:03 | 51.76309 | -0.37824 | 12679 ft | 348 kts | 329° |
| 2026-05-05 12:03 | 51.78398 | -0.39849 | 13383 ft | 352 kts | 329° |
| 2026-05-05 12:03 | 51.80509 | -0.41891 | 14065 ft | 356 kts | 329° |
| 2026-05-05 12:03 | 51.82624 | -0.43935 | 14686 ft | 360 kts | 329° |
| 2026-05-05 12:04 | 51.84782 | -0.46025 | 15305 ft | 364 kts | 329° |
| 2026-05-05 12:04 | 51.86966 | -0.48148 | 15903 ft | 368 kts | 328° |
| 2026-05-05 12:04 | 51.89169 | -0.50294 | 16512 ft | 372 kts | 328° |
| 2026-05-05 12:04 | 51.91394 | -0.52460 | 17142 ft | 375 kts | 328° |
| 2026-05-05 12:05 | 51.93646 | -0.54654 | 17781 ft | 379 kts | 328° |
| 2026-05-05 12:05 | 51.95913 | -0.56862 | 18400 ft | 383 kts | 328° |
| 2026-05-05 12:05 | 51.98214 | -0.59107 | 18966 ft | 387 kts | 327° |
| 2026-05-05 12:05 | 52.00529 | -0.61374 | 19553 ft | 390 kts | 327° |
| 2026-05-05 12:06 | 52.02860 | -0.63665 | 20145 ft | 394 kts | 327° |
| 2026-05-05 12:06 | 52.05213 | -0.65978 | 20722 ft | 397 kts | 327° |
| 2026-05-05 12:06 | 52.07588 | -0.68311 | 21283 ft | 401 kts | 327° |
| 2026-05-05 12:06 | 52.09954 | -0.70638 | 21812 ft | 404 kts | 327° |
| 2026-05-05 12:07 | 52.12373 | -0.73017 | 22336 ft | 408 kts | 327° |
| 2026-05-05 12:07 | 52.14812 | -0.75418 | 22857 ft | 411 kts | 327° |
| 2026-05-05 12:07 | 52.17270 | -0.77841 | 23374 ft | 415 kts | 327° |
| 2026-05-05 12:07 | 52.19750 | -0.80292 | 23827 ft | 418 kts | 327° |
| 2026-05-05 12:08 | 52.22244 | -0.82761 | 24260 ft | 421 kts | 326° |
| 2026-05-05 12:08 | 52.24754 | -0.85254 | 24676 ft | 424 kts | 326° |
| 2026-05-05 12:08 | 52.27276 | -0.87763 | 25094 ft | 426 kts | 326° |
| 2026-05-05 12:08 | 52.29818 | -0.90292 | 25508 ft | 429 kts | 326° |
| 2026-05-05 12:09 | 52.32371 | -0.92829 | 25919 ft | 431 kts | 327° |
| 2026-05-05 12:09 | 52.34943 | -0.95386 | 26306 ft | 433 kts | 326° |
| 2026-05-05 12:09 | 52.37524 | -0.97958 | 26702 ft | 436 kts | 326° |
| 2026-05-05 12:09 | 52.40084 | -1.00513 | 27086 ft | 438 kts | 326° |
| 2026-05-05 12:10 | 52.42694 | -1.03117 | 27481 ft | 440 kts | 326° |
| 2026-05-05 12:10 | 52.45315 | -1.05741 | 27888 ft | 443 kts | 326° |
| 2026-05-05 12:10 | 52.47947 | -1.08382 | 28274 ft | 445 kts | 326° |
| 2026-05-05 12:10 | 52.50593 | -1.11050 | 28657 ft | 447 kts | 326° |
| 2026-05-05 12:11 | 52.53199 | -1.13684 | 29025 ft | 450 kts | 326° |
| 2026-05-05 12:11 | 52.55877 | -1.16388 | 29391 ft | 452 kts | 326° |
| 2026-05-05 12:11 | 52.58559 | -1.19095 | 29749 ft | 454 kts | 327° |
| 2026-05-05 12:11 | 52.61259 | -1.21820 | 30098 ft | 456 kts | 327° |
| 2026-05-05 12:12 | 52.63970 | -1.24557 | 30438 ft | 457 kts | 327° |
| 2026-05-05 12:12 | 52.66671 | -1.27291 | 30879 ft | 456 kts | 327° |
| 2026-05-05 12:12 | 52.69377 | -1.30031 | 31323 ft | 455 kts | 327° |
| 2026-05-05 12:12 | 52.72027 | -1.32716 | 31738 ft | 454 kts | 327° |
| 2026-05-05 12:13 | 52.74716 | -1.35445 | 32126 ft | 454 kts | 327° |
| 2026-05-05 12:13 | 52.77402 | -1.38179 | 32537 ft | 453 kts | 328° |
| 2026-05-05 12:13 | 52.80088 | -1.40921 | 32954 ft | 453 kts | 328° |
| 2026-05-05 12:13 | 52.82766 | -1.43662 | 33393 ft | 452 kts | 328° |
| 2026-05-05 12:14 | 52.85430 | -1.46397 | 33838 ft | 451 kts | 329° |
| 2026-05-05 12:14 | 52.88096 | -1.49141 | 34241 ft | 450 kts | 328° |
| 2026-05-05 12:14 | 52.90752 | -1.51881 | 34616 ft | 449 kts | 328° |
| 2026-05-05 12:14 | 52.93368 | -1.54580 | 34970 ft | 449 kts | 328° |
| 2026-05-05 12:15 | 52.96016 | -1.57308 | 35333 ft | 448 kts | 328° |
| 2026-05-05 12:15 | 52.98659 | -1.60028 | 35706 ft | 446 kts | 328° |
| 2026-05-05 12:15 | 53.01300 | -1.62750 | 35962 ft | 446 kts | 327° |
| 2026-05-05 12:15 | 53.03937 | -1.65478 | 36019 ft | 447 kts | 327° |
| 2026-05-05 12:16 | 53.09214 | -1.70945 | 36026 ft | 447 kts | 327° |
| 2026-05-05 12:16 | 53.14483 | -1.76423 | 36031 ft | 446 kts | 327° |
| 2026-05-05 12:17 | 53.19702 | -1.81902 | 36037 ft | 446 kts | 324° |
| 2026-05-05 12:17 | 53.24198 | -1.88911 | 36045 ft | 443 kts | 306° |
| 2026-05-05 12:18 | 53.27274 | -1.97787 | 36055 ft | 442 kts | 295° |
| 2026-05-05 12:18 | 53.30017 | -2.06972 | 36065 ft | 442 kts | 295° |
| 2026-05-05 12:19 | 53.32727 | -2.16109 | 36068 ft | 441 kts | 295° |
| 2026-05-05 12:19 | 53.35421 | -2.25328 | 36072 ft | 441 kts | 292° |
| 2026-05-05 12:20 | 53.37390 | -2.35022 | 36074 ft | 440 kts | 287° |
| 2026-05-05 12:20 | 53.39249 | -2.44776 | 36075 ft | 439 kts | 287° |
| 2026-05-05 12:21 | 53.41099 | -2.54523 | 36071 ft | 439 kts | 287° |
| 2026-05-05 12:21 | 53.42925 | -2.64204 | 36074 ft | 438 kts | 286° |
| 2026-05-05 12:22 | 53.44749 | -2.73952 | 36075 ft | 438 kts | 286° |
| 2026-05-05 12:22 | 53.46566 | -2.83697 | 36074 ft | 437 kts | 286° |
| 2026-05-05 12:23 | 53.48374 | -2.93438 | 35941 ft | 437 kts | 286° |
| 2026-05-05 12:23 | 53.49275 | -2.98308 | 35691 ft | 436 kts | 286° |
| 2026-05-05 12:23 | 53.50158 | -3.03096 | 35440 ft | 435 kts | 286° |
| 2026-05-05 12:24 | 53.51052 | -3.07955 | 35193 ft | 435 kts | 286° |
| 2026-05-05 12:24 | 53.51943 | -3.12805 | 34948 ft | 436 kts | 286° |
| 2026-05-05 12:24 | 53.52834 | -3.17683 | 34701 ft | 436 kts | 286° |
| 2026-05-05 12:24 | 53.53720 | -3.22554 | 34462 ft | 436 kts | 286° |
| 2026-05-05 12:25 | 53.54608 | -3.27429 | 34226 ft | 436 kts | 285° |
| 2026-05-05 12:25 | 53.55495 | -3.32307 | 33976 ft | 437 kts | 285° |
| 2026-05-05 12:25 | 53.56379 | -3.37202 | 33703 ft | 437 kts | 285° |
| 2026-05-05 12:25 | 53.57261 | -3.42100 | 33433 ft | 437 kts | 285° |
| 2026-05-05 12:26 | 53.58141 | -3.46994 | 33160 ft | 438 kts | 285° |
| 2026-05-05 12:26 | 53.59021 | -3.51895 | 32890 ft | 438 kts | 285° |
| 2026-05-05 12:26 | 53.59891 | -3.56742 | 32628 ft | 439 kts | 285° |
| 2026-05-05 12:26 | 53.60770 | -3.61663 | 32363 ft | 439 kts | 285° |
| 2026-05-05 12:27 | 53.61669 | -3.66576 | 31912 ft | 439 kts | 288° |
| 2026-05-05 12:27 | 53.62787 | -3.71410 | 30854 ft | 446 kts | 290° |
| 2026-05-05 12:27 | 53.63949 | -3.76249 | 30188 ft | 443 kts | 291° |
| 2026-05-05 12:27 | 53.65105 | -3.81025 | 29541 ft | 437 kts | 291° |
| 2026-05-05 12:28 | 53.66244 | -3.85740 | 28938 ft | 431 kts | 290° |
| 2026-05-05 12:28 | 53.67361 | -3.90396 | 28331 ft | 426 kts | 290° |
| 2026-05-05 12:28 | 53.68460 | -3.94998 | 27732 ft | 420 kts | 290° |
| 2026-05-05 12:28 | 53.69541 | -3.99550 | 27134 ft | 416 kts | 290° |
| 2026-05-05 12:29 | 53.70594 | -4.03998 | 26560 ft | 412 kts | 289° |
| 2026-05-05 12:29 | 53.71455 | -4.08566 | 25980 ft | 406 kts | 281° |
| 2026-05-05 12:29 | 53.71846 | -4.13248 | 25407 ft | 401 kts | 272° |
| 2026-05-05 12:29 | 53.72013 | -4.17924 | 24844 ft | 397 kts | 272° |
| 2026-05-05 12:30 | 53.72186 | -4.22554 | 24299 ft | 394 kts | 272° |
| 2026-05-05 12:30 | 53.72363 | -4.27159 | 23763 ft | 391 kts | 272° |
| 2026-05-05 12:30 | 53.72537 | -4.31720 | 23189 ft | 388 kts | 272° |
| 2026-05-05 12:30 | 53.72705 | -4.36251 | 22680 ft | 384 kts | 272° |
| 2026-05-05 12:31 | 53.72867 | -4.40723 | 22202 ft | 380 kts | 272° |
| 2026-05-05 12:31 | 53.73027 | -4.45156 | 21725 ft | 377 kts | 272° |
| 2026-05-05 12:31 | 53.73185 | -4.49553 | 21255 ft | 374 kts | 272° |
| 2026-05-05 12:31 | 53.73339 | -4.53916 | 20790 ft | 371 kts | 272° |
| 2026-05-05 12:32 | 53.73489 | -4.58187 | 20317 ft | 368 kts | 272° |
| 2026-05-05 12:32 | 53.73636 | -4.62480 | 19835 ft | 365 kts | 273° |
| 2026-05-05 12:32 | 53.73782 | -4.66743 | 19345 ft | 362 kts | 273° |
| 2026-05-05 12:32 | 53.73925 | -4.70973 | 18855 ft | 360 kts | 273° |
| 2026-05-05 12:33 | 53.74064 | -4.75185 | 18347 ft | 358 kts | 273° |
| 2026-05-05 12:33 | 53.74199 | -4.79363 | 17798 ft | 355 kts | 273° |
| 2026-05-05 12:33 | 53.74336 | -4.83506 | 17277 ft | 351 kts | 273° |
| 2026-05-05 12:33 | 53.74472 | -4.87606 | 16763 ft | 348 kts | 273° |
| 2026-05-05 12:34 | 53.74605 | -4.91670 | 16251 ft | 345 kts | 273° |
| 2026-05-05 12:34 | 53.74737 | -4.95696 | 15747 ft | 342 kts | 274° |
| 2026-05-05 12:34 | 53.74863 | -4.99646 | 15240 ft | 340 kts | 274° |
| 2026-05-05 12:34 | 53.74989 | -5.03619 | 14735 ft | 338 kts | 274° |
| 2026-05-05 12:35 | 53.75114 | -5.07569 | 14233 ft | 336 kts | 274° |
| 2026-05-05 12:35 | 53.75219 | -5.11504 | 13706 ft | 335 kts | 270° |
| 2026-05-05 12:35 | 53.74962 | -5.15406 | 13174 ft | 334 kts | 259° |
| 2026-05-05 12:35 | 53.74279 | -5.19142 | 12672 ft | 332 kts | 252° |
| 2026-05-05 12:36 | 53.73529 | -5.22810 | 12166 ft | 330 kts | 252° |
| 2026-05-05 12:36 | 53.72789 | -5.26463 | 11665 ft | 328 kts | 253° |
| 2026-05-05 12:36 | 53.72065 | -5.30042 | 11179 ft | 326 kts | 253° |
| 2026-05-05 12:36 | 53.71333 | -5.33652 | 10687 ft | 325 kts | 253° |
| 2026-05-05 12:37 | 53.70610 | -5.37201 | 10513 ft | 313 kts | 252° |
| 2026-05-05 12:37 | 53.69913 | -5.40613 | 10387 ft | 302 kts | 253° |
| 2026-05-05 12:37 | 53.69241 | -5.43898 | 10245 ft | 292 kts | 253° |
| 2026-05-05 12:37 | 53.68586 | -5.47092 | 10099 ft | 284 kts | 253° |
| 2026-05-05 12:38 | 53.68113 | -5.50315 | 10035 ft | 283 kts | 265° |
| 2026-05-05 12:38 | 53.68085 | -5.53621 | 9781 ft | 281 kts | 275° |
| 2026-05-05 12:38 | 53.68183 | -5.56908 | 9509 ft | 280 kts | 274° |
| 2026-05-05 12:38 | 53.68179 | -5.60172 | 9254 ft | 279 kts | 263° |
| 2026-05-05 12:39 | 53.67535 | -5.63185 | 9023 ft | 276 kts | 239° |
| 2026-05-05 12:39 | 53.66248 | -5.65509 | 8892 ft | 270 kts | 217° |
| 2026-05-05 12:39 | 53.64717 | -5.67268 | 8755 ft | 262 kts | 216° |
| 2026-05-05 12:39 | 53.63224 | -5.68947 | 8626 ft | 254 kts | 216° |
| 2026-05-05 12:40 | 53.61774 | -5.70566 | 8489 ft | 246 kts | 216° |
| 2026-05-05 12:40 | 53.60366 | -5.72139 | 8285 ft | 241 kts | 216° |
| 2026-05-05 12:40 | 53.58975 | -5.73695 | 8003 ft | 239 kts | 216° |
| 2026-05-05 12:40 | 53.57593 | -5.75243 | 7707 ft | 238 kts | 216° |
| 2026-05-05 12:41 | 53.56239 | -5.76762 | 7407 ft | 237 kts | 216° |
| 2026-05-05 12:41 | 53.54871 | -5.78301 | 7099 ft | 235 kts | 216° |
| 2026-05-05 12:41 | 53.53517 | -5.79821 | 6617 ft | 234 kts | 216° |
| 2026-05-05 12:41 | 53.52169 | -5.81331 | 6125 ft | 232 kts | 216° |
| 2026-05-05 12:42 | 53.50825 | -5.82832 | 5600 ft | 232 kts | 216° |
| 2026-05-05 12:42 | 53.49460 | -5.84357 | 4959 ft | 242 kts | 216° |
| 2026-05-05 12:42 | 53.48029 | -5.85953 | 4477 ft | 248 kts | 215° |
| 2026-05-05 12:42 | 53.46606 | -5.87534 | 4300 ft | 242 kts | 215° |
| 2026-05-05 12:43 | 53.45227 | -5.89066 | 4176 ft | 233 kts | 215° |
| 2026-05-05 12:43 | 53.43921 | -5.90517 | 4074 ft | 224 kts | 215° |
| 2026-05-05 12:43 | 53.42650 | -5.91930 | 3973 ft | 214 kts | 215° |
| 2026-05-05 12:43 | 53.41526 | -5.93445 | 3873 ft | 202 kts | 232° |
| 2026-05-05 12:44 | 53.40802 | -5.95372 | 3716 ft | 191 kts | 252° |
| 2026-05-05 12:44 | 53.40510 | -5.97484 | 3521 ft | 183 kts | 271° |
| 2026-05-05 12:44 | 53.40583 | -5.99575 | 3332 ft | 176 kts | 278° |
| 2026-05-05 12:44 | 53.40702 | -6.01617 | 3069 ft | 175 kts | 278° |
| 2026-05-05 12:45 | 53.40816 | -6.03613 | 2815 ft | 169 kts | 279° |
| 2026-05-05 12:45 | 53.40925 | -6.05516 | 2576 ft | 159 kts | 279° |
| 2026-05-05 12:45 | 53.41024 | -6.07262 | 2400 ft | 146 kts | 279° |
| 2026-05-05 12:45 | 53.41120 | -6.08933 | 2192 ft | 142 kts | 279° |
| 2026-05-05 12:46 | 53.41214 | -6.10576 | 2029 ft | 141 kts | 279° |
| 2026-05-05 12:46 | 53.41296 | -6.12215 | 1835 ft | 142 kts | 279° |
| 2026-05-05 12:46 | 53.41378 | -6.13862 | 1566 ft | 141 kts | 278° |
| 2026-05-05 12:46 | 53.41462 | -6.15492 | 1459 ft | 141 kts | 280° |
| 2026-05-05 12:47 | 53.41556 | -6.17127 | 1237 ft | 141 kts | 281° |
| 2026-05-05 12:47 | 53.41663 | -6.18751 | 994 ft | 140 kts | 281° |
| 2026-05-05 12:47 | 53.41759 | -6.20360 | 839 ft | 139 kts | 279° |
| 2026-05-05 12:47 | 53.41844 | -6.21985 | 677 ft | 140 kts | 278° |
| 2026-05-05 12:48 | 53.41938 | -6.23596 | 423 ft | 138 kts | 279° |
| 2026-05-05 12:48 | 53.42031 | -6.25174 | 273 ft | 138 kts | 277° |
| 2026-05-05 12:48 | 53.42120 | -6.26712 | 212 ft | 117 kts | 275° |
| 2026-05-05 12:48 | 53.42167 | -6.27599 | 213 ft | 42 kts | 274° |
| 2026-05-05 12:49 | 53.42231 | -6.27943 | 215 ft | 29 kts | 300° |
| 2026-05-05 12:49 | 53.42277 | -6.28071 | 213 ft | 8 kts | 301° |
| 2026-05-05 12:49 | 53.42336 | -6.28130 | 211 ft | 12 kts | 8° |
| 2026-05-05 12:49 | 53.42358 | -6.27994 | 211 ft | 15 kts | 94° |
| 2026-05-05 12:50 | 53.42349 | -6.27801 | 215 ft | 18 kts | 95° |
| 2026-05-05 12:50 | 53.42336 | -6.27570 | 219 ft | 21 kts | 95° |
| 2026-05-05 12:50 | 53.42322 | -6.27307 | 211 ft | 24 kts | 96° |
| 2026-05-05 12:50 | 53.42307 | -6.27032 | 220 ft | 22 kts | 96° |
| 2026-05-05 12:51 | 53.42294 | -6.26786 | 211 ft | 18 kts | 95° |
| 2026-05-05 12:51 | 53.42281 | -6.26563 | 214 ft | 20 kts | 95° |
| 2026-05-05 12:51 | 53.42268 | -6.26320 | 211 ft | 22 kts | 95° |
| 2026-05-05 12:51 | 53.42257 | -6.26059 | 211 ft | 23 kts | 85° |
| 2026-05-05 12:52 | 53.42344 | -6.25830 | 211 ft | 24 kts | 46° |
| 2026-05-05 12:52 | 53.42466 | -6.25619 | 211 ft | 26 kts | 45° |
| 2026-05-05 12:52 | 53.42595 | -6.25400 | 215 ft | 28 kts | 45° |
| 2026-05-05 12:52 | 53.42704 | -6.25213 | 214 ft | 22 kts | 46° |
| 2026-05-05 12:53 | 53.42810 | -6.25048 | 216 ft | 9 kts | 30° |
| 2026-05-05 12:53 | 53.42861 | -6.24974 | 211 ft | 11 kts | 46° |
| 2026-05-05 12:53 | 53.42896 | -6.24896 | 213 ft | 7 kts | 85° |
| 2026-05-05 12:53 | 53.42875 | -6.24836 | 214 ft | 5 kts | 132° |
| 2026-05-05 12:54 | 53.42862 | -6.24813 | 211 ft | 0 kts | 134° |